Time;durP1;ratioP1;P1;durP2;ratioP2;P2;SDS_P1;SDS_P2;PMS_P1;PMS_P2;Temp;Humidity;BMP_temperature;BMP_pressure;BME280_temperature;BME280_humidity;BME280_pressure;Samples;Min_cycle;Max_cycle;Signal;HPM_P1;HPM_P2
2023/07/07 05:02:28;;;;;;;7.85;3.90;;;16.10;93.50;;;;;;5550952;23;20074;-72
2023/07/07 05:04:54;;;;;;;8.35;4.00;;;16.20;93.00;;;;;;5016638;28;20034;-72
2023/07/07 05:07:21;;;;;;;7.80;4.47;;;16.30;92.90;;;;;;5005185;28;20050;-72
2023/07/07 05:09:47;;;;;;;7.22;3.78;;;16.40;92.60;;;;;;5016439;28;20262;-74
2023/07/07 05:12:13;;;;;;;6.22;3.35;;;16.50;92.60;;;;;;5003670;28;20149;-76
2023/07/07 05:14:39;;;;;;;6.10;3.35;;;16.60;92.30;;;;;;5005004;28;20085;-73
2023/07/07 05:17:07;;;;;;;6.18;3.63;;;16.60;92.20;;;;;;5004541;28;20033;-75
2023/07/07 05:19:35;;;;;;;9.70;4.65;;;16.70;92.10;;;;;;5018596;28;20024;-74
2023/07/07 05:22:01;;;;;;;11.93;4.35;;;16.80;91.90;;;;;;5008546;28;20034;-74
2023/07/07 05:24:46;;;;;;;12.43;4.05;;;16.80;91.80;;;;;;5004739;28;20149;-73
2023/07/07 05:27:11;;;;;;;10.80;3.83;;;16.90;91.60;;;;;;5003884;28;20038;-73
2023/07/07 05:29:37;;;;;;;9.13;4.15;;;17.00;91.40;;;;;;5004797;28;20034;-73
2023/07/07 05:32:03;;;;;;;7.40;3.83;;;17.10;91.00;;;;;;5015885;28;20349;-74
2023/07/07 05:34:32;;;;;;;7.00;3.30;;;17.20;90.80;;;;;;5020266;28;20385;-73
2023/07/07 05:36:57;;;;;;;;;;;17.20;90.60;;;;;;5007558;28;20054;-72
2023/07/07 05:39:26;;;;;;;6.75;3.45;;;17.30;90.40;;;;;;5007903;28;19913;-74
2023/07/07 05:41:52;;;;;;;9.32;3.90;;;17.40;90.00;;;;;;5023861;28;20101;-74
2023/07/07 05:44:17;;;;;;;9.35;3.90;;;17.50;89.80;;;;;;5023336;28;20319;-74
2023/07/07 05:46:43;;;;;;;10.48;4.10;;;17.50;89.70;;;;;;5024044;28;20153;-74
2023/07/07 05:49:09;;;;;;;11.43;5.07;;;17.60;89.70;;;;;;5023665;28;20092;-74
2023/07/07 05:51:35;;;;;;;10.32;3.80;;;17.60;88.80;;;;;;5023997;28;20026;-75
2023/07/07 05:54:00;;;;;;;7.55;4.05;;;17.60;88.30;;;;;;5023317;28;20261;-74
2023/07/07 05:56:30;;;;;;;7.07;4.30;;;17.70;88.40;;;;;;5023902;28;20080;-74
2023/07/07 05:58:56;;;;;;;10.48;4.63;;;17.80;88.70;;;;;;5004462;28;20262;-75
2023/07/07 06:01:22;;;;;;;10.15;4.40;;;17.80;88.70;;;;;;5004621;28;20034;-75
2023/07/07 06:03:48;;;;;;;9.68;4.55;;;17.90;88.40;;;;;;5023203;28;20704;-73
2023/07/07 06:06:14;;;;;;;10.95;4.25;;;18.00;88.20;;;;;;5022891;28;20034;-73
2023/07/07 06:08:40;;;;;;;13.77;6.28;;;18.00;88.00;;;;;;5023144;28;20430;-75
2023/07/07 06:11:06;;;;;;;11.57;6.10;;;18.20;87.70;;;;;;5039736;28;20017;-74
2023/07/07 06:13:35;;;;;;;11.90;5.43;;;18.30;87.40;;;;;;5042863;28;20103;-72
2023/07/07 06:16:01;;;;;;;7.88;4.10;;;18.40;87.00;;;;;;5042895;28;20025;-72
2023/07/07 06:18:26;;;;;;;8.43;4.75;;;18.40;86.90;;;;;;5042239;28;20152;-74
2023/07/07 06:21:00;;;;;;;12.82;6.68;;;18.60;86.60;;;;;;5042913;28;20323;-74
2023/07/07 06:23:29;;;;;;;9.40;4.68;;;18.70;86.30;;;;;;5042250;28;20052;-73
2023/07/07 06:25:55;;;;;;;12.50;6.93;;;18.90;86.10;;;;;;5043009;28;20040;-72
2023/07/07 06:28:21;;;;;;;8.23;4.53;;;19.00;85.60;;;;;;5042456;28;20034;-74
2023/07/07 06:30:48;;;;;;;8.80;4.03;;;19.00;85.20;;;;;;5042431;28;20029;-74
2023/07/07 06:33:15;;;;;;;9.25;5.25;;;19.10;84.90;;;;;;5042273;28;20280;-76
2023/07/07 06:35:42;;;;;;;13.30;6.53;;;19.30;84.80;;;;;;5042433;28;20033;-74
2023/07/07 06:38:07;;;;;;;15.65;6.85;;;19.40;84.50;;;;;;5024631;28;20060;-74
2023/07/07 06:40:34;;;;;;;9.50;5.15;;;19.60;84.60;;;;;;5042381;28;20029;-74
2023/07/07 06:43:01;;;;;;;7.45;3.90;;;19.70;83.40;;;;;;5042305;28;20303;-74
2023/07/07 06:45:27;;;;;;;10.05;3.75;;;19.90;82.80;;;;;;5024509;28;20032;-75
2023/07/07 06:47:54;;;;;;;8.40;4.28;;;20.00;82.50;;;;;;5042677;28;20184;-75
2023/07/07 06:50:36;;;;;;;8.77;4.03;;;20.10;81.80;;;;;;5042122;28;20029;-74
2023/07/07 06:53:01;;;;;;;8.55;4.40;;;20.30;81.40;;;;;;5024579;28;20117;-74
2023/07/07 06:55:27;;;;;;;11.52;6.00;;;20.30;81.50;;;;;;5041597;28;20310;-75
2023/07/07 06:57:53;;;;;;;8.15;4.00;;;20.50;80.80;;;;;;5031689;28;20210;-75
2023/07/07 07:00:19;;;;;;;11.98;4.30;;;20.60;80.70;;;;;;5022116;28;20033;-73
2023/07/07 07:02:45;;;;;;;11.93;4.50;;;20.70;80.50;;;;;;5022072;28;20117;-74
2023/07/07 07:05:10;;;;;;;9.10;4.03;;;20.90;80.30;;;;;;5021806;28;20026;-73
2023/07/07 07:07:36;;;;;;;12.27;4.50;;;21.10;79.70;;;;;;5022366;28;20033;-74
2023/07/07 07:10:03;;;;;;;9.55;4.43;;;21.20;79.30;;;;;;5030458;28;20079;-72
2023/07/07 07:12:30;;;;;;;12.93;4.07;;;21.30;78.80;;;;;;5041537;28;20086;-74
2023/07/07 07:14:56;;;;;;;12.68;5.32;;;21.50;78.30;;;;;;5041730;28;20048;-73
2023/07/07 07:17:22;;;;;;;18.38;8.77;;;21.60;78.10;;;;;;5040874;28;20038;-74
2023/07/07 07:19:48;;;;;;;13.68;4.00;;;21.80;78.00;;;;;;5041596;28;20029;-73
2023/07/07 07:22:17;;;;;;;8.15;3.88;;;22.00;76.70;;;;;;5040961;28;20378;-74
2023/07/07 07:24:43;;;;;;;8.68;4.40;;;22.00;76.00;;;;;;5041489;28;20059;-75
2023/07/07 07:27:09;;;;;;;8.73;3.95;;;22.10;75.50;;;;;;5023408;28;20045;-74
2023/07/07 07:29:35;;;;;;;8.60;3.90;;;22.20;75.00;;;;;;5040435;28;20326;-74
2023/07/07 07:32:00;;;;;;;8.52;4.25;;;22.30;75.20;;;;;;5040652;28;20040;-75
2023/07/07 07:34:29;;;;;;;13.13;6.40;;;22.50;74.60;;;;;;5041131;28;20061;-74
2023/07/07 07:36:57;;;;;;;12.45;3.75;;;22.60;74.40;;;;;;5044922;28;20021;-75
2023/07/07 07:39:24;;;;;;;7.15;3.80;;;22.80;73.50;;;;;;5038127;28;20034;-75
2023/07/07 07:41:51;;;;;;;6.22;3.60;;;22.80;72.90;;;;;;5024384;28;20304;-75
2023/07/07 07:44:19;;;;;;;14.55;3.95;;;22.90;73.00;;;;;;5024435;28;20045;-75
2023/07/07 07:46:46;;;;;;;8.52;3.42;;;23.00;73.00;;;;;;5025026;28;20056;-76
2023/07/07 07:49:13;;;;;;;9.10;3.57;;;23.10;72.30;;;;;;5024428;28;20029;-75
2023/07/07 07:51:39;;;;;;;9.10;4.00;;;23.20;72.10;;;;;;5024866;28;20048;-76
2023/07/07 07:54:11;;;;;;;9.23;3.85;;;23.30;71.50;;;;;;5024833;28;20042;-75
2023/07/07 07:56:40;;;;;;;8.05;3.53;;;23.40;71.30;;;;;;5025153;28;20057;-74
2023/07/07 07:59:06;;;;;;;9.50;3.35;;;23.50;71.50;;;;;;5025049;28;20287;-75
2023/07/07 08:01:33;;;;;;;9.32;3.45;;;23.60;71.30;;;;;;5024210;28;20141;-74
2023/07/07 08:03:58;;;;;;;8.48;3.50;;;23.70;71.40;;;;;;5024564;28;20075;-72
2023/07/07 08:06:24;;;;;;;9.23;3.78;;;23.80;70.80;;;;;;5024039;28;20061;-72
2023/07/07 08:08:50;;;;;;;6.68;3.15;;;23.80;70.10;;;;;;5024704;28;20092;-73
2023/07/07 08:11:29;;;;;;;9.32;3.67;;;23.80;70.30;;;;;;5042048;28;20093;-73
2023/07/07 08:13:55;;;;;;;10.82;4.65;;;24.00;70.70;;;;;;5028344;28;20033;-73
2023/07/07 08:16:21;;;;;;;10.95;6.88;;;24.10;70.40;;;;;;5043798;28;20042;-73
2023/07/07 08:18:47;;;;;;;13.93;6.90;;;24.20;70.40;;;;;;5044094;28;20311;-72
2023/07/07 08:21:12;;;;;;;12.02;4.22;;;24.30;70.00;;;;;;5043270;28;20021;-72
2023/07/07 08:23:38;;;;;;;12.63;7.18;;;24.40;69.90;;;;;;5042958;28;20047;-73
2023/07/07 08:26:04;;;;;;;13.02;5.85;;;24.60;69.30;;;;;;5044005;28;20361;-75
2023/07/07 08:28:29;;;;;;;9.68;4.50;;;24.70;69.70;;;;;;5043238;28;20047;-73
2023/07/07 08:30:55;;;;;;;16.05;9.00;;;24.70;69.00;;;;;;5044106;28;20029;-75
2023/07/07 08:33:21;;;;;;;10.60;5.32;;;24.80;69.10;;;;;;5043589;28;20075;-74
2023/07/07 08:35:46;;;;;;;11.05;4.30;;;24.90;68.60;;;;;;5044045;28;20032;-73
2023/07/07 08:38:12;;;;;;;6.57;3.58;;;24.90;68.60;;;;;;5042900;28;20048;-74
2023/07/07 08:40:49;;;;;;;7.63;3.70;;;25.00;68.60;;;;;;5043635;28;20017;-75
2023/07/07 08:43:17;;;;;;;7.97;3.70;;;25.00;67.90;;;;;;5043115;28;20036;-74
2023/07/07 08:45:55;;;;;;;14.20;4.20;;;25.10;68.50;;;;;;5042751;28;20084;-75
2023/07/07 08:48:30;;;;;;;14.00;3.83;;;25.30;68.10;;;;;;5043098;28;20037;-74
2023/07/07 08:51:02;;;;;;;12.27;3.97;;;25.40;68.10;;;;;;5043751;28;20243;-74
2023/07/07 08:53:37;;;;;;;6.57;3.58;;;25.60;67.80;;;;;;5043014;28;20310;-75
2023/07/07 08:56:28;;;;;;;13.18;3.72;;;25.70;67.50;;;;;;5025594;28;20047;-75
2023/07/07 08:59:12;;;;;;;7.05;3.63;;;25.90;67.10;;;;;;5022315;28;20037;-74
2023/07/07 09:02:19;;;;;;;9.23;4.50;;;25.90;66.60;;;;;;5023226;28;20041;-74
2023/07/07 09:04:57;;;;;;;9.77;4.13;;;26.10;66.70;;;;;;5024107;28;20038;-74
2023/07/07 09:07:38;;;;;;;7.20;4.10;;;26.20;66.60;;;;;;5023085;28;20299;-74
2023/07/07 09:10:22;;;;;;;11.30;4.18;;;26.10;65.90;;;;;;5023419;28;20679;-75
2023/07/07 09:13:06;;;;;;;7.93;4.45;;;26.20;66.20;;;;;;5013974;28;20037;-75
2023/07/07 09:15:37;;;;;;;9.18;3.80;;;26.30;65.00;;;;;;5042984;28;20256;-75
2023/07/07 09:18:19;;;;;;;9.23;4.65;;;26.40;64.80;;;;;;5043286;28;20033;-75
2023/07/07 09:20:50;;;;;;;9.88;4.60;;;26.40;64.80;;;;;;5043404;28;20033;-75
2023/07/07 09:23:19;;;;;;;9.93;5.78;;;26.60;65.10;;;;;;5025093;28;20037;-75
2023/07/07 09:25:55;;;;;;;8.70;4.80;;;26.70;64.20;;;;;;5043339;28;20108;-76
2023/07/07 09:28:27;;;;;;;12.35;8.85;;;26.70;63.50;;;;;;5041575;28;20064;-79
2023/07/07 09:31:17;;;;;;;10.93;5.82;;;26.70;63.00;;;;;;5042427;28;20151;-74
2023/07/07 09:33:43;;;;;;;11.10;4.60;;;26.90;62.50;;;;;;5042538;28;20109;-75
2023/07/07 09:36:09;;;;;;;17.33;6.10;;;27.00;61.80;;;;;;5042512;28;20044;-75
2023/07/07 09:38:56;;;;;;;15.98;6.35;;;27.10;61.70;;;;;;5042559;28;20096;-75
2023/07/07 09:41:44;;;;;;;7.13;5.00;;;27.30;61.10;;;;;;5024089;28;20052;-75
2023/07/07 09:44:28;;;;;;;11.73;4.72;;;27.50;59.00;;;;;;5042626;28;20078;-76
2023/07/07 09:47:05;;;;;;;8.55;4.93;;;27.60;57.40;;;;;;5042307;28;20038;-75
2023/07/07 09:49:36;;;;;;;9.23;4.55;;;27.60;56.20;;;;;;5042032;28;20034;-75
2023/07/07 09:52:24;;;;;;;11.43;4.65;;;27.80;55.60;;;;;;5042989;28;20073;-75
2023/07/07 09:54:51;;;;;;;14.18;5.15;;;28.00;55.70;;;;;;5042583;28;20048;-75
2023/07/07 09:57:27;;;;;;;7.82;4.13;;;28.10;55.30;;;;;;5036017;28;20081;-77
2023/07/07 09:59:58;;;;;;;8.13;4.35;;;28.20;55.20;;;;;;5022561;28;20045;-75
2023/07/07 10:02:25;;;;;;;8.38;4.43;;;27.90;55.80;;;;;;5021839;28;20348;-75
2023/07/07 10:05:01;;;;;;;8.30;4.57;;;28.00;56.60;;;;;;5040926;28;20041;-75
2023/07/07 10:07:34;;;;;;;7.50;4.47;;;28.00;56.80;;;;;;5041722;28;20378;-74
2023/07/07 10:10:06;;;;;;;7.45;4.45;;;28.00;56.90;;;;;;5034178;28;20029;-74
2023/07/07 10:12:32;;;;;;;9.20;5.20;;;28.20;57.00;;;;;;5004673;28;20076;-75
2023/07/07 10:14:58;;;;;;;19.40;5.78;;;28.30;56.20;;;;;;5021904;28;20201;-74
2023/07/07 10:17:36;;;;;;;8.75;4.65;;;28.40;56.60;;;;;;5003944;28;20311;-75
2023/07/07 10:20:02;;;;;;;7.88;5.00;;;28.50;55.60;;;;;;5022119;28;20033;-74
2023/07/07 10:22:29;;;;;;;11.95;8.40;;;28.60;55.40;;;;;;5021580;28;20053;-74
2023/07/07 10:24:55;;;;;;;9.60;5.03;;;28.60;56.00;;;;;;5022111;28;20208;-75
2023/07/07 10:27:24;;;;;;;9.98;5.10;;;28.50;55.70;;;;;;5021491;28;20076;-76
2023/07/07 10:29:50;;;;;;;7.68;4.90;;;28.70;55.30;;;;;;5021880;28;20091;-75
2023/07/07 10:32:21;;;;;;;9.57;6.40;;;28.90;54.60;;;;;;5021991;28;20053;-75
2023/07/07 10:34:49;;;;;;;9.52;6.85;;;29.00;52.30;;;;;;5022682;28;20029;-76
2023/07/07 10:37:21;;;;;;;;;;;29.00;52.10;;;;;;5022682;28;20067;-75
2023/07/07 10:40:12;;;;;;;10.30;5.90;;;29.10;53.00;;;;;;5031752;28;19912;-76
2023/07/07 10:42:38;;;;;;;14.40;6.93;;;29.30;52.70;;;;;;5041480;28;20025;-74
2023/07/07 10:45:04;;;;;;;11.32;6.65;;;29.40;52.90;;;;;;5041846;28;20037;-74
2023/07/07 10:47:32;;;;;;;9.30;6.53;;;29.40;51.80;;;;;;5040686;28;20093;-74
2023/07/07 10:49:59;;;;;;;11.93;8.15;;;29.40;52.10;;;;;;5041857;28;20036;-73
2023/07/07 10:53:01;;;;;;;15.13;7.73;;;29.30;50.90;;;;;;5041366;28;20203;-76
2023/07/07 10:55:35;;;;;;;11.57;6.63;;;29.50;51.20;;;;;;5041487;28;20770;-72
2023/07/07 10:58:19;;;;;;;10.90;6.63;;;29.40;52.80;;;;;;5029674;28;20223;-72
2023/07/07 11:01:07;;;;;;;8.60;6.38;;;29.40;53.40;;;;;;5021633;28;20251;-72
2023/07/07 11:04:05;;;;;;;9.88;5.38;;;29.30;53.10;;;;;;5003394;28;20050;-74
2023/07/07 11:06:39;;;;;;;;;;;29.40;53.80;;;;;;5022150;28;20034;-74
2023/07/07 11:09:24;;;;;;;10.73;5.75;;;29.50;53.40;;;;;;5022931;28;19928;-74
2023/07/07 11:12:10;;;;;;;8.95;5.90;;;29.80;52.40;;;;;;5045898;28;20033;-73
2023/07/07 11:15:00;;;;;;;12.02;6.18;;;30.00;52.10;;;;;;5045258;28;20033;-73
2023/07/07 11:17:59;;;;;;;10.90;5.90;;;30.20;51.50;;;;;;5045890;28;20053;-74
2023/07/07 11:20:41;;;;;;;11.45;6.20;;;30.40;51.50;;;;;;5045342;28;20051;-73
2023/07/07 11:23:38;;;;;;;10.48;6.40;;;30.60;49.60;;;;;;5028534;28;20048;-74
2023/07/07 11:26:45;;;;;;;11.90;6.53;;;30.80;49.80;;;;;;5041800;28;20053;-72
2023/07/07 11:29:26;;;;;;;11.73;6.13;;;30.80;49.50;;;;;;4955817;28;20044;-73
2023/07/07 11:31:58;;;;;;;9.73;6.10;;;31.00;49.60;;;;;;5042648;28;20036;-72
2023/07/07 11:34:47;;;;;;;9.43;6.45;;;31.10;50.00;;;;;;5045296;28;20021;-72
2023/07/07 11:37:22;;;;;;;10.00;6.25;;;31.30;48.80;;;;;;5045619;28;20056;-73
2023/07/07 11:39:59;;;;;;;10.45;6.35;;;31.60;49.10;;;;;;5036254;28;20026;-73
2023/07/07 11:42:46;;;;;;;8.90;5.70;;;32.20;48.50;;;;;;5007916;28;20034;-72
2023/07/07 11:45:45;;;;;;;9.05;6.28;;;32.70;48.00;;;;;;5025804;28;20054;-73
2023/07/07 11:48:34;;;;;;;13.45;6.43;;;33.60;48.10;;;;;;5025625;28;20260;-74
2023/07/07 11:51:24;;;;;;;9.48;5.50;;;34.00;46.80;;;;;;5013097;28;20045;-74
2023/07/07 11:54:04;;;;;;;22.83;7.95;;;34.80;46.00;;;;;;5025828;28;20022;-76
2023/07/07 11:56:50;;;;;;;11.07;8.43;;;35.90;45.50;;;;;;5025630;28;20042;-74
2023/07/07 11:59:38;;;;;;;12.35;10.32;;;36.30;44.20;;;;;;5046473;28;20040;-75
2023/07/07 12:02:14;;;;;;;8.15;6.57;;;37.60;43.80;;;;;;5025649;28;20053;-73
2023/07/07 12:04:43;;;;;;;10.18;6.78;;;38.60;43.20;;;;;;5025752;28;20392;-74
2023/07/07 12:07:24;;;;;;;8.68;6.25;;;38.80;42.00;;;;;;5025730;28;20336;-75
2023/07/07 12:10:04;;;;;;;8.60;6.00;;;38.00;40.90;;;;;;5032308;28;20044;-74
2023/07/07 12:12:42;;;;;;;7.82;6.13;;;38.00;41.10;;;;;;5010710;28;20039;-75
2023/07/07 12:15:21;;;;;;;8.02;5.82;;;38.40;40.20;;;;;;5046037;28;20025;-75
2023/07/07 12:18:15;;;;;;;9.70;6.63;;;39.30;40.30;;;;;;5045436;28;20037;-75
2023/07/07 12:20:48;;;;;;;7.97;6.90;;;39.80;40.30;;;;;;5044272;28;20049;-74
2023/07/07 12:23:19;;;;;;;9.00;7.25;;;40.40;38.90;;;;;;5045267;28;20371;-74
2023/07/07 12:25:46;;;;;;;9.27;8.38;;;40.60;39.10;;;;;;5044059;28;20100;-73
2023/07/07 12:28:13;;;;;;;7.43;6.20;;;41.00;38.80;;;;;;5044869;28;20035;-74
2023/07/07 12:30:46;;;;;;;8.27;6.15;;;41.50;37.40;;;;;;5024015;28;20243;-73
2023/07/07 12:33:16;;;;;;;7.35;6.00;;;40.20;38.70;;;;;;5025726;28;20033;-74
2023/07/07 12:35:56;;;;;;;7.85;6.35;;;39.90;39.10;;;;;;5024978;28;20053;-74
2023/07/07 12:38:31;;;;;;;7.05;6.20;;;39.90;39.30;;;;;;5031429;28;20034;-74
2023/07/07 12:41:09;;;;;;;6.75;5.85;;;40.60;39.00;;;;;;5026402;28;20029;-76
2023/07/07 12:43:44;;;;;;;6.93;5.88;;;40.50;38.90;;;;;;5024813;28;20030;-72
2023/07/07 12:46:22;;;;;;;8.63;6.13;;;41.40;38.50;;;;;;5025547;28;20061;-75
2023/07/07 12:48:50;;;;;;;7.05;5.32;;;42.80;37.80;;;;;;5024920;28;20053;-74
2023/07/07 12:51:18;;;;;;;6.72;5.57;;;44.20;37.90;;;;;;5025223;28;20076;-76
2023/07/07 12:53:53;;;;;;;8.13;5.55;;;45.10;36.50;;;;;;5024124;28;20061;-73
2023/07/07 12:56:22;;;;;;;6.47;5.47;;;45.10;36.20;;;;;;5024793;28;20029;-74
2023/07/07 12:58:51;;;;;;;9.75;5.40;;;45.40;36.50;;;;;;5042142;28;20318;-74
2023/07/07 13:01:17;;;;;;;9.40;6.05;;;45.80;35.80;;;;;;5044509;28;20018;-74
2023/07/07 13:04:12;;;;;;;9.93;6.20;;;45.90;35.80;;;;;;5043908;28;20076;-75
2023/07/07 13:06:39;;;;;;;6.75;5.55;;;46.20;35.50;;;;;;5043936;28;20032;-75
2023/07/07 13:09:11;;;;;;;8.05;5.53;;;46.60;35.70;;;;;;5044542;28;20040;-74
2023/07/07 13:11:39;;;;;;;6.90;5.90;;;46.70;35.50;;;;;;5043734;28;20041;-75
2023/07/07 13:14:24;;;;;;;7.60;5.88;;;45.70;35.50;;;;;;5044637;28;20391;-74
2023/07/07 13:16:49;;;;;;;8.88;5.93;;;45.40;35.80;;;;;;5044446;28;20056;-74
2023/07/07 13:19:16;;;;;;;7.05;5.80;;;46.20;36.10;;;;;;5044475;28;20080;-75
2023/07/07 13:21:43;;;;;;;7.20;5.35;;;47.40;35.70;;;;;;5043980;28;20080;-74
2023/07/07 13:24:09;;;;;;;7.68;6.88;;;46.90;34.90;;;;;;5043879;28;20040;-74
2023/07/07 13:26:34;;;;;;;6.72;5.65;;;47.60;34.80;;;;;;5043443;28;20218;-73
2023/07/07 13:29:03;;;;;;;6.73;5.83;;;47.30;34.60;;;;;;5043936;28;20049;-74
2023/07/07 13:31:29;;;;;;;6.78;5.72;;;46.20;34.80;;;;;;5043099;28;20029;-75
2023/07/07 13:33:55;;;;;;;7.77;5.40;;;46.00;35.30;;;;;;5043455;28;20025;-74
2023/07/07 13:36:23;;;;;;;8.77;5.23;;;46.40;35.70;;;;;;5044323;28;20032;-75
2023/07/07 13:38:50;;;;;;;6.57;5.70;;;47.70;35.30;;;;;;5042404;28;20110;-74
2023/07/07 13:41:18;;;;;;;7.15;5.90;;;48.00;35.10;;;;;;5024325;28;20030;-75
2023/07/07 13:43:46;;;;;;;7.72;5.45;;;47.20;34.80;;;;;;5023810;28;20292;-76
2023/07/07 13:46:24;;;;;;;8.25;5.50;;;48.10;35.40;;;;;;5024089;28;20101;-75
2023/07/07 13:49:06;;;;;;;7.75;5.50;;;49.10;35.10;;;;;;5006029;28;20057;-74
2023/07/07 13:51:40;;;;;;;7.00;6.13;;;49.50;34.40;;;;;;5023238;28;20057;-74
2023/07/07 13:54:10;;;;;;;7.78;6.00;;;49.70;34.00;;;;;;5023854;28;20076;-73
2023/07/07 13:56:40;;;;;;;6.72;5.22;;;50.30;34.20;;;;;;5023129;28;20034;-74
2023/07/07 13:59:15;;;;;;;8.45;7.53;;;49.20;33.30;;;;;;5023979;28;20038;-73
2023/07/07 14:01:43;;;;;;;10.27;8.17;;;47.60;33.80;;;;;;5023239;28;20045;-73
2023/07/07 14:04:21;;;;;;;6.30;5.43;;;46.90;34.10;;;;;;5023961;28;20049;-72
2023/07/07 14:06:47;;;;;;;5.57;4.97;;;47.90;34.20;;;;;;5022914;28;20062;-73
2023/07/07 14:09:39;;;;;;;;;;;48.50;33.50;;;;;;5025588;28;20049;-73
2023/07/07 14:12:11;;;;;;;8.25;5.03;;;48.10;33.70;;;;;;5041162;28;19967;-74
2023/07/07 14:14:38;;;;;;;6.57;4.95;;;49.00;33.90;;;;;;5043185;28;20025;-72
2023/07/07 14:17:12;;;;;;;6.38;5.38;;;49.30;33.60;;;;;;5042922;28;20029;-71
2023/07/07 14:19:56;;;;;;;5.88;5.28;;;49.80;33.20;;;;;;5042731;28;20250;-72
2023/07/07 14:22:24;;;;;;;7.33;5.60;;;50.50;33.30;;;;;;5043178;28;20060;-71
2023/07/07 14:24:50;;;;;;;6.25;5.05;;;50.70;33.30;;;;;;5043111;28;20539;-72
2023/07/07 14:27:18;;;;;;;6.18;5.28;;;51.10;33.00;;;;;;5042992;28;20092;-72
2023/07/07 14:29:44;;;;;;;7.80;5.82;;;50.50;32.90;;;;;;5042524;28;20403;-70
2023/07/07 14:32:32;;;;;;;6.30;5.35;;;51.00;33.60;;;;;;5042797;28;20045;-72
2023/07/07 14:34:59;;;;;;;6.07;5.07;;;51.50;33.10;;;;;;5042884;28;20041;-73
2023/07/07 14:37:51;;;;;;;5.75;4.95;;;50.30;32.70;;;;;;5042403;28;20052;-74
2023/07/07 14:40:24;;;;;;;7.55;5.32;;;50.70;33.10;;;;;;5022576;28;20041;-72
2023/07/07 14:42:51;;;;;;;6.15;4.85;;;51.30;32.90;;;;;;5022898;28;20097;-74
2023/07/07 14:45:34;;;;;;;6.47;5.53;;;50.90;32.70;;;;;;5023101;28;20331;-72
2023/07/07 14:48:00;;;;;;;7.80;5.15;;;50.80;32.80;;;;;;5034403;28;20255;-74
2023/07/07 14:50:30;;;;;;;8.07;5.93;;;50.70;32.80;;;;;;5042022;28;20227;-74
2023/07/07 14:53:00;;;;;;;6.78;6.07;;;49.80;32.90;;;;;;5043036;28;20074;-74
2023/07/07 14:55:29;;;;;;;7.75;5.47;;;49.30;33.10;;;;;;5042168;28;20037;-71
2023/07/07 14:58:02;;;;;;;7.25;5.75;;;50.10;33.30;;;;;;5042361;28;20227;-72
2023/07/07 15:00:37;;;;;;;6.80;5.32;;;50.40;32.60;;;;;;5042362;28;20037;-74
2023/07/07 15:03:32;;;;;;;7.22;5.47;;;50.20;32.70;;;;;;5042803;28;20049;-71
2023/07/07 15:06:04;;;;;;;5.38;4.65;;;49.70;32.90;;;;;;5042431;28;20036;-74
2023/07/07 15:08:30;;;;;;;5.90;5.10;;;50.10;32.70;;;;;;5026624;28;20033;-74
2023/07/07 15:11:07;;;;;;;5.97;4.95;;;50.10;32.20;;;;;;5038445;28;20345;-75
2023/07/07 15:13:34;;;;;;;7.85;5.10;;;48.90;32.40;;;;;;5024321;28;20065;-73
2023/07/07 15:16:03;;;;;;;6.88;4.82;;;48.40;32.80;;;;;;5042440;28;20033;-74
2023/07/07 15:18:32;;;;;;;6.75;5.03;;;47.50;32.90;;;;;;5040883;28;20029;-74
2023/07/07 15:20:59;;;;;;;6.90;4.75;;;47.20;33.40;;;;;;5042325;28;20040;-73
2023/07/07 15:23:24;;;;;;;5.15;4.65;;;47.40;33.00;;;;;;5041806;28;20329;-74
2023/07/07 15:25:50;;;;;;;5.63;4.50;;;46.80;33.00;;;;;;5042585;28;20029;-73
2023/07/07 15:28:18;;;;;;;6.57;4.57;;;47.00;33.80;;;;;;5042677;28;20045;-73
2023/07/07 15:30:45;;;;;;;5.95;4.32;;;47.70;33.00;;;;;;5041988;28;20229;-73
2023/07/07 15:33:11;;;;;;;;;;;46.90;33.30;;;;;;5042973;28;20060;-73
2023/07/07 15:35:37;;;;;;;5.75;4.82;;;47.60;33.20;;;;;;5041719;28;19905;-75
2023/07/07 15:38:40;;;;;;;7.15;5.00;;;48.90;33.20;;;;;;5042488;28;20362;-73
2023/07/07 15:41:18;;;;;;;5.82;4.47;;;50.00;33.00;;;;;;5042355;28;20029;-73
2023/07/07 15:43:45;;;;;;;6.25;4.85;;;50.20;32.40;;;;;;5041816;28;20041;-74
2023/07/07 15:46:32;;;;;;;5.30;4.72;;;48.60;32.00;;;;;;5024524;28;20219;-74
2023/07/07 15:48:59;;;;;;;6.05;4.78;;;47.90;32.70;;;;;;5042543;28;20258;-74
2023/07/07 15:51:35;;;;;;;6.85;4.75;;;47.10;32.60;;;;;;5041848;28;20108;-74
2023/07/07 15:54:03;;;;;;;5.82;4.63;;;45.50;33.00;;;;;;5042330;28;20100;-74
2023/07/07 15:56:34;;;;;;;9.80;8.35;;;46.10;33.20;;;;;;5044340;28;20032;-74
2023/07/07 15:59:01;;;;;;;5.53;4.85;;;46.30;32.90;;;;;;5046221;28;20033;-73
2023/07/07 16:01:27;;;;;;;7.25;5.40;;;47.10;33.00;;;;;;5044935;28;20083;-73
2023/07/07 16:03:52;;;;;;;7.60;5.50;;;47.60;32.40;;;;;;5045698;28;20041;-72
2023/07/07 16:06:19;;;;;;;7.90;5.00;;;48.20;32.60;;;;;;5030075;28;20141;-73
2023/07/07 16:08:48;;;;;;;;;;;48.20;32.20;;;;;;5025935;28;20083;-74
2023/07/07 16:11:20;;;;;;;7.20;5.30;;;47.90;32.40;;;;;;5043985;28;20179;-72
2023/07/07 16:13:48;;;;;;;7.53;5.13;;;47.40;32.30;;;;;;5027812;28;20033;-73
2023/07/07 16:16:20;;;;;;;7.93;5.18;;;46.30;32.80;;;;;;5028164;28;20022;-72
2023/07/07 16:18:46;;;;;;;6.00;4.85;;;45.70;33.10;;;;;;5028875;28;20049;-72
2023/07/07 16:21:19;;;;;;;7.93;5.13;;;45.60;32.90;;;;;;5025577;28;20053;-71
2023/07/07 16:23:45;;;;;;;5.72;4.55;;;45.90;32.80;;;;;;5025178;28;20033;-72
2023/07/07 16:26:21;;;;;;;6.78;4.43;;;47.10;32.70;;;;;;5025765;28;20038;-72
2023/07/07 16:28:47;;;;;;;7.03;4.63;;;47.00;32.90;;;;;;5024875;28;20068;-73
2023/07/07 16:31:14;;;;;;;7.17;4.83;;;47.10;32.60;;;;;;5025743;28;20030;-72
2023/07/07 16:33:40;;;;;;;6.38;4.38;;;47.30;32.70;;;;;;5024899;28;20055;-73
2023/07/07 16:36:34;;;;;;;6.43;4.43;;;47.10;32.20;;;;;;5025364;28;20300;-73
2023/07/07 16:39:00;;;;;;;5.90;4.43;;;46.60;32.50;;;;;;5012277;28;20272;-72
2023/07/07 16:41:31;;;;;;;5.77;5.13;;;47.30;32.40;;;;;;5025361;28;20084;-72
2023/07/07 16:44:00;;;;;;;6.97;6.28;;;47.80;32.20;;;;;;5007950;28;20033;-73
2023/07/07 16:46:26;;;;;;;9.75;7.72;;;48.10;31.80;;;;;;5025318;28;20059;-73
2023/07/07 16:48:52;;;;;;;6.35;4.45;;;49.00;31.90;;;;;;5025234;28;20212;-73
2023/07/07 16:51:24;;;;;;;6.50;4.40;;;49.30;31.50;;;;;;5007913;28;20038;-73
2023/07/07 16:53:50;;;;;;;5.50;4.25;;;47.80;31.70;;;;;;5024778;28;20346;-73
2023/07/07 16:56:23;;;;;;;6.07;4.55;;;47.40;32.70;;;;;;5025271;28;20045;-73
2023/07/07 16:58:49;;;;;;;6.38;4.50;;;46.50;32.60;;;;;;5024187;28;20041;-72
2023/07/07 17:01:16;;;;;;;8.18;4.60;;;45.30;33.00;;;;;;5024716;28;20022;-72
2023/07/07 17:03:42;;;;;;;6.95;4.75;;;43.90;34.00;;;;;;5024231;28;20046;-73
2023/07/07 17:06:25;;;;;;;6.57;4.25;;;43.10;34.40;;;;;;5024660;28;20033;-72
2023/07/07 17:08:54;;;;;;;6.05;4.65;;;42.60;34.60;;;;;;5023978;28;20048;-73
2023/07/07 17:11:20;;;;;;;7.47;4.63;;;43.60;34.20;;;;;;5043783;28;20038;-73
2023/07/07 17:13:46;;;;;;;5.97;4.65;;;43.90;34.10;;;;;;5044391;28;20033;-73
2023/07/07 17:16:23;;;;;;;6.10;4.47;;;44.20;33.90;;;;;;5044719;28;20039;-73
2023/07/07 17:18:54;;;;;;;6.70;4.70;;;44.70;32.90;;;;;;5043788;28;20263;-73
2023/07/07 17:21:21;;;;;;;6.18;4.68;;;45.00;33.20;;;;;;5044506;28;20033;-73
2023/07/07 17:23:48;;;;;;;6.97;4.50;;;45.10;32.80;;;;;;5026353;28;20304;-73
2023/07/07 17:26:20;;;;;;;5.82;4.05;;;46.00;32.70;;;;;;5043967;28;20033;-74
2023/07/07 17:28:46;;;;;;;7.90;4.47;;;46.00;32.60;;;;;;5026242;28;20055;-73
2023/07/07 17:31:15;;;;;;;6.30;4.28;;;45.70;32.80;;;;;;5044150;28;20052;-72
2023/07/07 17:33:41;;;;;;;7.50;4.47;;;45.70;33.10;;;;;;5026056;28;20243;-72
2023/07/07 17:36:27;;;;;;;8.32;5.00;;;46.20;33.40;;;;;;5043853;28;20022;-73
2023/07/07 17:38:55;;;;;;;7.13;4.38;;;46.40;32.70;;;;;;5043484;28;20072;-74
2023/07/07 17:41:24;;;;;;;6.65;4.78;;;46.90;32.60;;;;;;5026466;28;20021;-73
2023/07/07 17:43:49;;;;;;;6.78;5.50;;;45.50;32.70;;;;;;5025633;28;20248;-73
2023/07/07 17:46:22;;;;;;;7.93;5.35;;;44.90;33.20;;;;;;5043429;28;20048;-74
2023/07/07 17:48:48;;;;;;;9.02;6.13;;;44.40;33.00;;;;;;5043449;28;20090;-74
2023/07/07 17:51:14;;;;;;;6.10;4.35;;;43.10;33.60;;;;;;5043877;28;20040;-73
2023/07/07 17:53:40;;;;;;;8.73;5.45;;;42.60;34.20;;;;;;5043300;28;20120;-73
2023/07/07 17:56:27;;;;;;;9.80;7.85;;;43.00;33.80;;;;;;5043690;28;20025;-73
2023/07/07 17:58:53;;;;;;;8.20;5.07;;;43.20;33.80;;;;;;5042964;28;20156;-74
2023/07/07 18:01:19;;;;;;;6.72;4.70;;;42.30;33.80;;;;;;5043219;28;20057;-73
2023/07/07 18:03:45;;;;;;;6.57;4.40;;;42.20;34.30;;;;;;5042749;28;20049;-74
2023/07/07 18:06:19;;;;;;;6.40;4.15;;;42.20;34.30;;;;;;5043083;28;20025;-74
2023/07/07 18:08:46;;;;;;;7.32;4.57;;;42.00;34.20;;;;;;5042883;28;20041;-73
2023/07/07 18:11:25;;;;;;;6.32;4.30;;;41.60;34.60;;;;;;5043085;28;20053;-73